sensor_id;sensor_type;location;lat;lon;timestamp;pressure;altitude;pressure_sealevel;temperature;humidity
50854;BME280;44154;45.506;-122.806;2023-03-31T00:01:49;100324.53;;;25.78;31.85
50854;BME280;44154;45.506;-122.806;2023-03-31T00:04:17;100313.31;;;25.75;31.62
50854;BME280;44154;45.506;-122.806;2023-03-31T00:06:43;100321.00;;;25.73;31.81
50854;BME280;44154;45.506;-122.806;2023-03-31T00:09:12;100326.72;;;25.71;31.75
50854;BME280;44154;45.506;-122.806;2023-03-31T00:11:39;100333.03;;;25.67;32.00
50854;BME280;44154;45.506;-122.806;2023-03-31T00:14:06;100321.25;;;25.61;32.00
50854;BME280;44154;45.506;-122.806;2023-03-31T00:16:37;100333.03;;;25.67;32.11
50854;BME280;44154;45.506;-122.806;2023-03-31T00:19:04;100324.84;;;25.61;32.25
50854;BME280;44154;45.506;-122.806;2023-03-31T00:21:34;100340.44;;;25.66;32.11
50854;BME280;44154;45.506;-122.806;2023-03-31T00:24:02;100343.44;;;25.59;32.10
50854;BME280;44154;45.506;-122.806;2023-03-31T00:26:29;100345.94;;;25.56;32.18
50854;BME280;44154;45.506;-122.806;2023-03-31T00:28:56;100347.81;;;25.55;32.03
50854;BME280;44154;45.506;-122.806;2023-03-31T00:31:24;100350.28;;;25.57;32.10
50854;BME280;44154;45.506;-122.806;2023-03-31T00:33:51;100358.78;;;25.55;31.91
50854;BME280;44154;45.506;-122.806;2023-03-31T00:36:18;100361.53;;;25.50;32.21
50854;BME280;44154;45.506;-122.806;2023-03-31T00:39:03;100365.66;;;25.53;32.11
50854;BME280;44154;45.506;-122.806;2023-03-31T00:41:37;100369.47;;;25.57;32.27
50854;BME280;44154;45.506;-122.806;2023-03-31T00:44:16;100372.78;;;25.49;32.45
50854;BME280;44154;45.506;-122.806;2023-03-31T00:47:02;100377.72;;;25.52;32.33
50854;BME280;44154;45.506;-122.806;2023-03-31T00:49:42;100382.38;;;25.56;32.31
50854;BME280;44154;45.506;-122.806;2023-03-31T00:54:46;100391.72;;;25.86;32.22
50854;BME280;44154;45.506;-122.806;2023-03-31T00:57:14;100387.03;;;25.97;31.87
50854;BME280;44154;45.506;-122.806;2023-03-31T00:59:47;100390.63;;;26.03;31.82
50854;BME280;44154;45.506;-122.806;2023-03-31T01:02:14;100397.78;;;26.04;31.90
50854;BME280;44154;45.506;-122.806;2023-03-31T01:04:46;100400.22;;;26.00;31.79
50854;BME280;44154;45.506;-122.806;2023-03-31T01:07:23;100380.75;;;25.86;31.85
50854;BME280;44154;45.506;-122.806;2023-03-31T01:09:52;100399.41;;;25.89;31.98
50854;BME280;44154;45.506;-122.806;2023-03-31T01:12:23;100412.56;;;25.92;32.06
50854;BME280;44154;45.506;-122.806;2023-03-31T01:14:50;100385.69;;;25.79;32.11
50854;BME280;44154;45.506;-122.806;2023-03-31T01:17:19;100400.22;;;25.85;31.97
50854;BME280;44154;45.506;-122.806;2023-03-31T01:31:08;100421.84;;;25.66;32.77
50854;BME280;44154;45.506;-122.806;2023-03-31T01:37:03;100436.06;;;25.62;32.64
50854;BME280;44154;45.506;-122.806;2023-03-31T01:42:55;100448.44;;;25.60;33.41
50854;BME280;44154;45.506;-122.806;2023-03-31T01:48:11;100441.56;;;25.62;33.78
50854;BME280;44154;45.506;-122.806;2023-03-31T01:53:34;100456.66;;;25.65;34.10
50854;BME280;44154;45.506;-122.806;2023-03-31T01:56:34;100448.44;;;25.70;33.90
50854;BME280;44154;45.506;-122.806;2023-03-31T01:59:33;100448.97;;;25.72;33.62
50854;BME280;44154;45.506;-122.806;2023-03-31T02:02:07;100462.44;;;25.79;33.42
50854;BME280;44154;45.506;-122.806;2023-03-31T02:04:39;100464.59;;;25.77;33.55
50854;BME280;44154;45.506;-122.806;2023-03-31T02:07:43;100458.88;;;25.73;33.22
50854;BME280;44154;45.506;-122.806;2023-03-31T02:10:13;100459.66;;;25.63;33.24
50854;BME280;44154;45.506;-122.806;2023-03-31T02:12:42;100471.19;;;25.71;33.78
50854;BME280;44154;45.506;-122.806;2023-03-31T02:15:13;100477.22;;;25.68;33.70
50854;BME280;44154;45.506;-122.806;2023-03-31T02:17:44;100475.56;;;25.67;33.59
50854;BME280;44154;45.506;-122.806;2023-03-31T02:20:14;100473.94;;;25.66;33.95
50854;BME280;44154;45.506;-122.806;2023-03-31T02:22:46;100479.34;;;25.55;33.99
50854;BME280;44154;45.506;-122.806;2023-03-31T02:25:16;100481.81;;;25.52;33.86
50854;BME280;44154;45.506;-122.806;2023-03-31T02:27:48;100484.28;;;25.48;33.85
50854;BME280;44154;45.506;-122.806;2023-03-31T02:30:17;100468.09;;;25.41;34.14
50854;BME280;44154;45.506;-122.806;2023-03-31T02:32:44;100484.28;;;25.48;34.09
50854;BME280;44154;45.506;-122.806;2023-03-31T02:35:15;100491.69;;;25.48;34.20
50854;BME280;44154;45.506;-122.806;2023-03-31T02:37:42;100494.13;;;25.49;34.33
50854;BME280;44154;45.506;-122.806;2023-03-31T02:40:13;100487.28;;;25.47;33.72
50854;BME280;44154;45.506;-122.806;2023-03-31T02:42:41;100502.06;;;25.40;34.07
50854;BME280;44154;45.506;-122.806;2023-03-31T02:45:42;100507.63;;;25.66;33.78
50854;BME280;44154;45.506;-122.806;2023-03-31T02:48:27;100445.28;;;25.25;33.90
50854;BME280;44154;45.506;-122.806;2023-03-31T02:51:23;100522.72;;;25.69;34.04
50854;BME280;44154;45.506;-122.806;2023-03-31T02:54:19;100523.25;;;25.66;33.91
50854;BME280;44154;45.506;-122.806;2023-03-31T03:05:49;100531.66;;;25.43;33.57
50854;BME280;44154;45.506;-122.806;2023-03-31T03:11:36;100535.19;;;25.39;33.38
50854;BME280;44154;45.506;-122.806;2023-03-31T03:14:22;100533.00;;;25.36;33.28
50854;BME280;44154;45.506;-122.806;2023-03-31T03:17:05;100533.53;;;25.33;33.37
50854;BME280;44154;45.506;-122.806;2023-03-31T03:19:33;100545.50;;;25.21;33.55
50854;BME280;44154;45.506;-122.806;2023-03-31T03:21:59;100541.16;;;25.31;33.48
50854;BME280;44154;45.506;-122.806;2023-03-31T03:24:25;100544.63;;;25.58;33.33
50854;BME280;44154;45.506;-122.806;2023-03-31T03:26:54;100542.19;;;25.72;33.09
50854;BME280;44154;45.506;-122.806;2023-03-31T03:29:21;100531.78;;;25.79;32.79
50854;BME280;44154;45.506;-122.806;2023-03-31T03:31:47;100539.75;;;25.91;32.31
50854;BME280;44154;45.506;-122.806;2023-03-31T03:34:13;100531.25;;;25.77;32.61
50854;BME280;44154;45.506;-122.806;2023-03-31T03:36:39;100539.72;;;25.66;32.74
50854;BME280;44154;45.506;-122.806;2023-03-31T03:39:06;100535.59;;;25.63;32.60
50854;BME280;44154;45.506;-122.806;2023-03-31T03:41:33;100551.69;;;25.49;33.17
50854;BME280;44154;45.506;-122.806;2023-03-31T03:43:59;100557.75;;;25.51;33.03
50854;BME280;44154;45.506;-122.806;2023-03-31T03:46:26;100534.63;;;25.32;32.85
50854;BME280;44154;45.506;-122.806;2023-03-31T03:48:52;100565.66;;;25.48;32.92
50854;BME280;44154;45.506;-122.806;2023-03-31T03:51:18;100564.84;;;25.47;32.78
50854;BME280;44154;45.506;-122.806;2023-03-31T03:53:44;100576.88;;;25.46;32.69
50854;BME280;44154;45.506;-122.806;2023-03-31T03:56:10;100572.47;;;25.45;32.79
50854;BME280;44154;45.506;-122.806;2023-03-31T03:58:36;100564.25;;;25.40;32.66
50854;BME280;44154;45.506;-122.806;2023-03-31T04:01:03;100571.09;;;25.42;32.92
50854;BME280;44154;45.506;-122.806;2023-03-31T04:03:29;100580.69;;;25.40;32.63
50854;BME280;44154;45.506;-122.806;2023-03-31T04:05:56;100587.22;;;25.34;33.13
50854;BME280;44154;45.506;-122.806;2023-03-31T04:08:22;100574.53;;;25.22;33.52
50854;BME280;44154;45.506;-122.806;2023-03-31T04:10:49;100580.69;;;25.40;33.30
50854;BME280;44154;45.506;-122.806;2023-03-31T04:13:17;100560.94;;;25.33;33.03
50854;BME280;44154;45.506;-122.806;2023-03-31T04:15:43;100592.56;;;25.61;32.80
50854;BME280;44154;45.506;-122.806;2023-03-31T04:18:10;100576.09;;;25.56;32.58
50854;BME280;44154;45.506;-122.806;2023-03-31T04:20:51;100553.53;;;25.33;32.41
50854;BME280;44154;45.506;-122.806;2023-03-31T04:23:38;100601.06;;;25.59;32.48
50854;BME280;44154;45.506;-122.806;2023-03-31T04:26:15;100607.38;;;25.60;32.47
50854;BME280;44154;45.506;-122.806;2023-03-31T04:28:43;100594.41;;;25.45;32.20
50854;BME280;44154;45.506;-122.806;2023-03-31T04:31:12;100587.22;;;25.34;32.40
50854;BME280;44154;45.506;-122.806;2023-03-31T04:33:51;100607.28;;;25.44;32.30
50854;BME280;44154;45.506;-122.806;2023-03-31T04:36:17;100606.44;;;25.39;32.40
50854;BME280;44154;45.506;-122.806;2023-03-31T04:38:49;100610.78;;;25.35;32.65
50854;BME280;44154;45.506;-122.806;2023-03-31T04:41:20;100607.75;;;25.31;32.71
50854;BME280;44154;45.506;-122.806;2023-03-31T04:43:46;100537.72;;;24.65;33.34
50854;BME280;44154;45.506;-122.806;2023-03-31T04:46:12;100614.72;;;25.11;33.18
50854;BME280;44154;45.506;-122.806;2023-03-31T04:48:39;100623.03;;;25.27;33.06
50854;BME280;44154;45.506;-122.806;2023-03-31T04:51:05;100620.19;;;25.44;32.44
50854;BME280;44154;45.506;-122.806;2023-03-31T04:53:31;100616.63;;;25.54;32.48
50854;BME280;44154;45.506;-122.806;2023-03-31T04:55:57;100619.97;;;25.61;32.08
50854;BME280;44154;45.506;-122.806;2023-03-31T04:58:24;100626.28;;;25.61;31.87
50854;BME280;44154;45.506;-122.806;2023-03-31T05:00:51;100625.97;;;25.58;32.06
50854;BME280;44154;45.506;-122.806;2023-03-31T05:03:17;100622.38;;;25.52;32.25
50854;BME280;44154;45.506;-122.806;2023-03-31T05:05:43;100630.56;;;25.42;32.32
50854;BME280;44154;45.506;-122.806;2023-03-31T05:08:09;100626.13;;;25.36;32.20
50854;BME280;44154;45.506;-122.806;2023-03-31T05:10:35;100632.16;;;25.33;32.19
50854;BME280;44154;45.506;-122.806;2023-03-31T05:13:02;100635.41;;;25.30;32.30
50854;BME280;44154;45.506;-122.806;2023-03-31T05:15:28;100615.25;;;25.14;32.26
50854;BME280;44154;45.506;-122.806;2023-03-31T05:17:54;100630.41;;;25.21;32.12
50854;BME280;44154;45.506;-122.806;2023-03-31T05:20:23;100638.84;;;25.15;32.60
50854;BME280;44154;45.506;-122.806;2023-03-31T05:22:49;100634.69;;;25.07;33.07
50854;BME280;44154;45.506;-122.806;2023-03-31T05:25:15;100617.66;;;25.00;32.68
50854;BME280;44154;45.506;-122.806;2023-03-31T05:27:45;100644.25;;;25.37;32.45
50854;BME280;44154;45.506;-122.806;2023-03-31T05:30:14;100617.63;;;25.32;32.56
50854;BME280;44154;45.506;-122.806;2023-03-31T05:32:41;100633.63;;;25.51;32.21
50854;BME280;44154;45.506;-122.806;2023-03-31T05:35:08;100629.53;;;25.53;32.06
50854;BME280;44154;45.506;-122.806;2023-03-31T05:37:35;100634.97;;;25.48;31.98
50854;BME280;44154;45.506;-122.806;2023-03-31T05:40:01;100634.09;;;25.42;32.18
50854;BME280;44154;45.506;-122.806;2023-03-31T05:42:29;100639.31;;;25.39;32.01
50854;BME280;44154;45.506;-122.806;2023-03-31T05:44:55;100643.13;;;25.33;32.12
50854;BME280;44154;45.506;-122.806;2023-03-31T05:47:22;100643.84;;;25.28;31.89
50854;BME280;44154;45.506;-122.806;2023-03-31T05:49:48;100626.81;;;25.16;32.18
50854;BME280;44154;45.506;-122.806;2023-03-31T05:52:14;100646.84;;;25.26;32.22
50854;BME280;44154;45.506;-122.806;2023-03-31T05:54:40;100641.91;;;25.23;32.25
50854;BME280;44154;45.506;-122.806;2023-03-31T05:57:07;100644.78;;;25.06;32.64
50854;BME280;44154;45.506;-122.806;2023-03-31T05:59:34;100644.56;;;25.08;32.62
50854;BME280;44154;45.506;-122.806;2023-03-31T06:02:01;100636.44;;;25.23;32.43
50854;BME280;44154;45.506;-122.806;2023-03-31T06:04:28;100635.50;;;25.40;32.53
50854;BME280;44154;45.506;-122.806;2023-03-31T06:06:54;100636.84;;;25.37;32.19
50854;BME280;44154;45.506;-122.806;2023-03-31T06:09:20;100640.63;;;25.31;32.27
50854;BME280;44154;45.506;-122.806;2023-03-31T06:11:46;100647.75;;;25.32;32.18
50854;BME280;44154;45.506;-122.806;2023-03-31T06:14:13;100647.44;;;25.28;32.10
50854;BME280;44154;45.506;-122.806;2023-03-31T06:16:39;100641.91;;;25.23;32.32
50854;BME280;44154;45.506;-122.806;2023-03-31T06:19:05;100645.19;;;25.20;32.23
50854;BME280;44154;45.506;-122.806;2023-03-31T06:21:31;100640.78;;;25.19;32.09
50854;BME280;44154;45.506;-122.806;2023-03-31T06:23:57;100644.03;;;25.16;32.19
50854;BME280;44154;45.506;-122.806;2023-03-31T06:26:25;100646.22;;;25.14;32.26
50854;BME280;44154;45.506;-122.806;2023-03-31T06:28:52;100649.50;;;25.11;32.76
50854;BME280;44154;45.506;-122.806;2023-03-31T06:31:21;100643.91;;;25.01;32.95
50854;BME280;44154;45.506;-122.806;2023-03-31T06:33:47;100588.84;;;24.59;33.13
50854;BME280;44154;45.506;-122.806;2023-03-31T06:36:16;100645.59;;;25.02;33.96
50854;BME280;44154;45.506;-122.806;2023-03-31T06:38:42;100631.56;;;24.93;33.80
50854;BME280;44154;45.506;-122.806;2023-03-31T06:41:11;100646.94;;;24.99;33.25
50854;BME280;44154;45.506;-122.806;2023-03-31T06:43:38;100641.97;;;24.96;33.17
50854;BME280;44154;45.506;-122.806;2023-03-31T06:46:04;100635.69;;;24.96;33.18
50854;BME280;44154;45.506;-122.806;2023-03-31T06:48:30;100645.59;;;25.02;33.23
50854;BME280;44154;45.506;-122.806;2023-03-31T06:50:59;100642.06;;;25.06;33.39
50854;BME280;44154;45.506;-122.806;2023-03-31T06:53:27;100609.66;;;24.93;33.38
50854;BME280;44154;45.506;-122.806;2023-03-31T06:55:53;100634.38;;;25.03;33.45
50854;BME280;44154;45.506;-122.806;2023-03-31T06:58:19;100638.97;;;24.98;33.58
50854;BME280;44154;45.506;-122.806;2023-03-31T07:00:45;100629.69;;;24.99;33.27
50854;BME280;44154;45.506;-122.806;2023-03-31T07:03:12;100607.09;;;24.81;33.43
50854;BME280;44154;45.506;-122.806;2023-03-31T07:05:38;100637.28;;;24.91;33.33
50854;BME280;44154;45.506;-122.806;2023-03-31T07:08:05;100625.47;;;24.86;33.45
50854;BME280;44154;45.506;-122.806;2023-03-31T07:10:31;100637.22;;;24.86;33.54
50854;BME280;44154;45.506;-122.806;2023-03-31T07:12:58;100611.63;;;24.65;33.62
50854;BME280;44154;45.506;-122.806;2023-03-31T07:15:25;100617.97;;;24.71;33.69
50854;BME280;44154;45.506;-122.806;2023-03-31T07:17:55;100622.91;;;24.74;33.32
50854;BME280;44154;45.506;-122.806;2023-03-31T07:20:27;100636.13;;;24.82;33.49
50854;BME280;44154;45.506;-122.806;2023-03-31T07:22:54;100629.34;;;24.90;34.91
50854;BME280;44154;45.506;-122.806;2023-03-31T07:25:20;100636.28;;;25.03;34.85
50854;BME280;44154;45.506;-122.806;2023-03-31T07:27:46;100642.22;;;25.27;33.92
50854;BME280;44154;45.506;-122.806;2023-03-31T07:30:15;100641.75;;;25.35;35.29
50854;BME280;44154;45.506;-122.806;2023-03-31T07:32:42;100645.84;;;25.33;36.13
50854;BME280;44154;45.506;-122.806;2023-03-31T07:35:10;100638.09;;;25.24;36.57
50854;BME280;44154;45.506;-122.806;2023-03-31T07:37:39;100644.03;;;25.11;36.45
50854;BME280;44154;45.506;-122.806;2023-03-31T07:40:06;100641.44;;;24.99;35.54
50854;BME280;44154;45.506;-122.806;2023-03-31T07:42:34;100641.94;;;24.91;35.68
50854;BME280;44154;45.506;-122.806;2023-03-31T07:45:01;100640.56;;;24.88;35.43
50854;BME280;44154;45.506;-122.806;2023-03-31T07:47:27;100628.19;;;24.81;35.62
50854;BME280;44154;45.506;-122.806;2023-03-31T07:49:54;100627.88;;;24.77;36.12
50854;BME280;44154;45.506;-122.806;2023-03-31T07:52:20;100643.22;;;24.83;36.41
50854;BME280;44154;45.506;-122.806;2023-03-31T07:54:46;100643.22;;;24.83;35.93
50854;BME280;44154;45.506;-122.806;2023-03-31T07:57:12;100638.25;;;24.75;36.38
50854;BME280;44154;45.506;-122.806;2023-03-31T07:59:39;100634.06;;;24.67;35.54
50854;BME280;44154;45.506;-122.806;2023-03-31T08:02:05;100646.88;;;24.62;35.11
50854;BME280;44154;45.506;-122.806;2023-03-31T08:04:31;100641.88;;;24.58;35.13
50854;BME280;44154;45.506;-122.806;2023-03-31T08:06:57;100649.28;;;24.58;36.11
50854;BME280;44154;45.506;-122.806;2023-03-31T08:09:23;100647.06;;;24.55;35.04
50854;BME280;44154;45.506;-122.806;2023-03-31T08:11:49;100643.47;;;24.54;35.36
50854;BME280;44154;45.506;-122.806;2023-03-31T08:14:15;100654.09;;;24.73;34.42
50854;BME280;44154;45.506;-122.806;2023-03-31T08:16:41;100635.00;;;24.78;33.85
50854;BME280;44154;45.506;-122.806;2023-03-31T08:19:08;100659.31;;;25.07;33.05
50854;BME280;44154;45.506;-122.806;2023-03-31T08:21:34;100655.00;;;25.16;32.47
50854;BME280;44154;45.506;-122.806;2023-03-31T08:24:00;100651.13;;;25.12;32.37
50854;BME280;44154;45.506;-122.806;2023-03-31T08:26:26;100654.66;;;25.07;32.52
50854;BME280;44154;45.506;-122.806;2023-03-31T08:28:53;100656.53;;;25.02;32.59
50854;BME280;44154;45.506;-122.806;2023-03-31T08:31:20;100658.41;;;24.96;32.40
50854;BME280;44154;45.506;-122.806;2023-03-31T08:33:48;100659.44;;;24.90;32.59
50854;BME280;44154;45.506;-122.806;2023-03-31T08:36:14;100658.03;;;24.82;32.56
50854;BME280;44154;45.506;-122.806;2023-03-31T08:38:42;100668.91;;;24.77;32.62
50854;BME280;44154;45.506;-122.806;2023-03-31T08:44:16;100638.25;;;24.48;33.51
50854;BME280;44154;45.506;-122.806;2023-03-31T08:46:46;100661.69;;;24.66;33.18
50854;BME280;44154;45.506;-122.806;2023-03-31T08:49:15;100665.00;;;24.68;33.49
50854;BME280;44154;45.506;-122.806;2023-03-31T08:51:49;100663.28;;;24.62;34.04
50854;BME280;44154;45.506;-122.806;2023-03-31T08:54:32;100666.88;;;24.62;34.77
50854;BME280;44154;45.506;-122.806;2023-03-31T08:56:59;100674.69;;;24.53;36.38
50854;BME280;44154;45.506;-122.806;2023-03-31T08:59:29;100662.09;;;24.52;36.44
50854;BME280;44154;45.506;-122.806;2023-03-31T09:07:55;100664.59;;;24.86;34.72
50854;BME280;44154;45.506;-122.806;2023-03-31T09:10:55;100661.31;;;24.84;34.63
50854;BME280;44154;45.506;-122.806;2023-03-31T09:16:26;100657.91;;;24.72;35.08
50854;BME280;44154;45.506;-122.806;2023-03-31T09:19:00;100653.75;;;24.64;35.13
50854;BME280;44154;45.506;-122.806;2023-03-31T09:24:10;100676.00;;;24.73;34.96
50854;BME280;44154;45.506;-122.806;2023-03-31T09:29:25;100665.75;;;24.63;35.14
50854;BME280;44154;45.506;-122.806;2023-03-31T09:31:55;100668.22;;;24.59;35.26
50854;BME280;44154;45.506;-122.806;2023-03-31T09:34:31;100664.19;;;24.45;36.17
50854;BME280;44154;45.506;-122.806;2023-03-31T09:36:59;100670.59;;;24.56;35.81
50854;BME280;44154;45.506;-122.806;2023-03-31T09:39:25;100652.66;;;24.65;35.24
50854;BME280;44154;45.506;-122.806;2023-03-31T09:41:52;100673.94;;;24.85;34.95
50854;BME280;44154;45.506;-122.806;2023-03-31T09:44:43;100664.59;;;24.86;34.58
50854;BME280;44154;45.506;-122.806;2023-03-31T09:47:19;100670.59;;;24.83;34.54
50854;BME280;44154;45.506;-122.806;2023-03-31T09:49:48;100674.94;;;24.79;34.75
50854;BME280;44154;45.506;-122.806;2023-03-31T09:52:29;100666.13;;;24.72;34.87
50854;BME280;44154;45.506;-122.806;2023-03-31T09:55:49;100668.81;;;24.67;34.93
50854;BME280;44154;45.506;-122.806;2023-03-31T09:57:48;100656.34;;;24.54;34.89
50854;BME280;44154;45.506;-122.806;2023-03-31T10:00:20;100675.56;;;24.59;34.88
50854;BME280;44154;45.506;-122.806;2023-03-31T10:02:50;100677.44;;;24.53;35.11
50854;BME280;44154;45.506;-122.806;2023-03-31T10:07:53;100676.28;;;24.49;35.66
50854;BME280;44154;45.506;-122.806;2023-03-31T10:10:36;100678.75;;;24.51;35.16
50854;BME280;44154;45.506;-122.806;2023-03-31T10:13:08;100680.59;;;24.67;34.90
50854;BME280;44154;45.506;-122.806;2023-03-31T10:15:38;100678.81;;;24.83;35.73
50854;BME280;44154;45.506;-122.806;2023-03-31T10:18:04;100675.06;;;24.89;34.57
50854;BME280;44154;45.506;-122.806;2023-03-31T10:20:38;100683.53;;;24.88;34.30
50854;BME280;44154;45.506;-122.806;2023-03-31T10:23:23;100676.09;;;24.83;34.44
50854;BME280;44154;45.506;-122.806;2023-03-31T10:25:52;100682.34;;;24.79;34.28
50854;BME280;44154;45.506;-122.806;2023-03-31T10:28:19;100679.56;;;24.73;34.34
50854;BME280;44154;45.506;-122.806;2023-03-31T10:30:53;100676.78;;;24.68;34.26
50854;BME280;44154;45.506;-122.806;2023-03-31T10:33:26;100672.91;;;24.64;34.35
50854;BME280;44154;45.506;-122.806;2023-03-31T10:35:58;100672.34;;;24.62;34.46
50854;BME280;44154;45.506;-122.806;2023-03-31T10:38:44;100664.84;;;24.57;34.39
50854;BME280;44154;45.506;-122.806;2023-03-31T10:41:20;100669.50;;;24.57;34.44
50854;BME280;44154;45.506;-122.806;2023-03-31T10:43:50;100657.06;;;24.44;34.84
50854;BME280;44154;45.506;-122.806;2023-03-31T10:46:17;100682.56;;;24.50;35.33
50854;BME280;44154;45.506;-122.806;2023-03-31T10:48:43;100690.53;;;24.51;35.11
50854;BME280;44154;45.506;-122.806;2023-03-31T10:51:17;100688.50;;;24.64;34.87
50854;BME280;44154;45.506;-122.806;2023-03-31T10:53:49;100659.03;;;24.71;35.62
50854;BME280;44154;45.506;-122.806;2023-03-31T11:02:04;100672.69;;;24.71;34.47
50854;BME280;44154;45.506;-122.806;2023-03-31T11:07:53;100661.66;;;24.61;34.28
50854;BME280;44154;45.506;-122.806;2023-03-31T11:15:55;100673.03;;;24.52;34.37
50854;BME280;44154;45.506;-122.806;2023-03-31T11:20:58;100668.38;;;24.53;34.76
50854;BME280;44154;45.506;-122.806;2023-03-31T11:23:46;100656.78;;;24.40;34.78
50854;BME280;44154;45.506;-122.806;2023-03-31T11:29:17;100672.28;;;24.84;35.16
50854;BME280;44154;45.506;-122.806;2023-03-31T11:34:52;100666.97;;;24.72;34.41
50854;BME280;44154;45.506;-122.806;2023-03-31T11:43:02;100678.06;;;24.61;34.33
50854;BME280;44154;45.506;-122.806;2023-03-31T11:45:40;100655.41;;;24.43;34.08
50854;BME280;44154;45.506;-122.806;2023-03-31T11:48:37;100677.91;;;24.50;34.27
50854;BME280;44154;45.506;-122.806;2023-03-31T11:51:15;100680.09;;;24.48;34.62
50854;BME280;44154;45.506;-122.806;2023-03-31T11:53:44;100676.81;;;24.46;34.84
50854;BME280;44154;45.506;-122.806;2023-03-31T11:56:11;100676.03;;;24.51;34.66
50854;BME280;44154;45.506;-122.806;2023-03-31T11:58:44;100673.72;;;24.65;34.52
50854;BME280;44154;45.506;-122.806;2023-03-31T12:01:26;100673.06;;;24.80;35.15
50854;BME280;44154;45.506;-122.806;2023-03-31T12:04:08;100666.72;;;24.79;34.74
50854;BME280;44154;45.506;-122.806;2023-03-31T12:06:40;100662.28;;;24.68;34.44
50854;BME280;44154;45.506;-122.806;2023-03-31T12:14:28;100660.56;;;24.62;34.30
50854;BME280;44154;45.506;-122.806;2023-03-31T12:17:03;100649.47;;;24.51;34.16
50854;BME280;44154;45.506;-122.806;2023-03-31T12:19:49;100662.63;;;24.54;34.26
50854;BME280;44154;45.506;-122.806;2023-03-31T12:22:34;100665.34;;;24.49;34.50
50854;BME280;44154;45.506;-122.806;2023-03-31T12:25:04;100664.50;;;24.49;34.64
50854;BME280;44154;45.506;-122.806;2023-03-31T12:27:42;100669.16;;;24.48;34.59
50854;BME280;44154;45.506;-122.806;2023-03-31T12:30:19;100654.91;;;24.46;34.64
50854;BME280;44154;45.506;-122.806;2023-03-31T12:33:20;100663.16;;;24.73;34.51
50854;BME280;44154;45.506;-122.806;2023-03-31T12:36:19;100662.38;;;24.78;34.54
50854;BME280;44154;45.506;-122.806;2023-03-31T12:42:23;100650.19;;;24.64;34.26
50854;BME280;44154;45.506;-122.806;2023-03-31T12:56:19;100670.88;;;25.14;33.56
50854;BME280;44154;45.506;-122.806;2023-03-31T12:58:46;100657.31;;;24.97;33.80
50854;BME280;44154;45.506;-122.806;2023-03-31T13:01:18;100644.91;;;24.84;33.72
50854;BME280;44154;45.506;-122.806;2023-03-31T13:16:34;100650.38;;;24.84;33.40
50854;BME280;44154;45.506;-122.806;2023-03-31T13:19:01;100663.22;;;25.16;33.62
50854;BME280;44154;45.506;-122.806;2023-03-31T13:21:28;100673.97;;;25.23;33.44
50854;BME280;44154;45.506;-122.806;2023-03-31T13:24:01;100668.16;;;25.14;33.39
50854;BME280;44154;45.506;-122.806;2023-03-31T13:26:37;100676.66;;;25.18;33.52
50854;BME280;44154;45.506;-122.806;2023-03-31T13:34:38;100674.75;;;24.86;33.74
50854;BME280;44154;45.506;-122.806;2023-03-31T13:52:11;100678.03;;;25.20;32.72
50854;BME280;44154;45.506;-122.806;2023-03-31T14:06:03;100707.16;;;24.99;33.38
50854;BME280;44154;45.506;-122.806;2023-03-31T14:08:49;100712.91;;;24.98;33.48
50854;BME280;44154;45.506;-122.806;2023-03-31T14:14:04;100710.97;;;25.31;32.84
50854;BME280;44154;45.506;-122.806;2023-03-31T14:16:36;100705.72;;;25.56;32.57
50854;BME280;44154;45.506;-122.806;2023-03-31T14:21:44;100714.66;;;25.79;31.91
50854;BME280;44154;45.506;-122.806;2023-03-31T14:29:31;100702.97;;;25.56;32.29
50854;BME280;44154;45.506;-122.806;2023-03-31T14:34:51;100713.00;;;25.40;32.24
50854;BME280;44154;45.506;-122.806;2023-03-31T14:37:19;100715.16;;;25.33;32.59
50854;BME280;44154;45.506;-122.806;2023-03-31T14:39:50;100706.13;;;25.33;32.68
50854;BME280;44154;45.506;-122.806;2023-03-31T14:42:38;100710.50;;;25.34;32.52
50854;BME280;44154;45.506;-122.806;2023-03-31T14:45:20;100710.44;;;25.28;32.35
50854;BME280;44154;45.506;-122.806;2023-03-31T14:47:56;100705.78;;;25.29;32.83
50854;BME280;44154;45.506;-122.806;2023-03-31T14:50:28;100695.72;;;25.35;32.47
50854;BME280;44154;45.506;-122.806;2023-03-31T14:52:55;100715.13;;;25.66;32.35
50854;BME280;44154;45.506;-122.806;2023-03-31T14:55:24;100718.28;;;25.95;31.79
50854;BME280;44154;45.506;-122.806;2023-03-31T14:57:54;100728.22;;;26.01;31.83
50854;BME280;44154;45.506;-122.806;2023-03-31T15:00:34;100724.00;;;25.88;32.62
50854;BME280;44154;45.506;-122.806;2023-03-31T15:03:06;100714.06;;;25.72;32.42
50854;BME280;44154;45.506;-122.806;2023-03-31T15:05:36;100728.84;;;25.71;32.81
50854;BME280;44154;45.506;-122.806;2023-03-31T15:08:06;100729.53;;;25.51;32.58
50854;BME280;44154;45.506;-122.806;2023-03-31T15:10:37;100740.19;;;25.47;32.87
50854;BME280;44154;45.506;-122.806;2023-03-31T15:15:53;100739.34;;;25.41;32.73
50854;BME280;44154;45.506;-122.806;2023-03-31T15:18:19;100737.34;;;25.32;32.99
50854;BME280;44154;45.506;-122.806;2023-03-31T15:20:45;100726.59;;;25.30;33.14
50854;BME280;44154;45.506;-122.806;2023-03-31T15:25:56;100734.81;;;25.30;33.12
50854;BME280;44154;45.506;-122.806;2023-03-31T15:28:25;100736.53;;;25.31;33.00
50854;BME280;44154;45.506;-122.806;2023-03-31T15:30:52;100724.34;;;25.54;32.42